createdAt,value
2022-10-11T00:02:01.307Z,99.90
2022-10-11T00:07:02.866Z,99.90
2022-10-11T00:12:04.345Z,99.90
2022-10-11T00:17:05.872Z,99.90
2022-10-11T00:22:07.411Z,99.90
2022-10-11T00:27:09.588Z,99.90
2022-10-11T00:32:11.131Z,99.90
2022-10-11T00:37:12.649Z,99.90
2022-10-11T00:42:14.169Z,99.90
2022-10-11T00:47:15.710Z,99.90
2022-10-11T00:52:17.219Z,99.90
2022-10-11T00:57:18.720Z,99.90
2022-10-11T01:02:20.264Z,99.90
2022-10-11T01:07:21.775Z,99.90
2022-10-11T01:12:23.305Z,99.90
2022-10-11T01:17:24.803Z,99.90
2022-10-11T01:22:26.323Z,99.90
2022-10-11T01:27:27.846Z,99.90
2022-10-11T01:32:29.358Z,99.90
2022-10-11T01:37:30.890Z,99.90
2022-10-11T01:42:32.407Z,99.90
2022-10-11T01:47:33.936Z,99.90
2022-10-11T01:52:35.457Z,99.90
2022-10-11T01:57:36.981Z,99.90
2022-10-11T02:02:38.502Z,99.90
2022-10-11T02:07:40.050Z,99.90
2022-10-11T02:12:41.580Z,99.90
2022-10-11T02:17:43.102Z,99.90
2022-10-11T02:22:44.627Z,99.90
2022-10-11T02:27:46.139Z,99.90
2022-10-11T02:32:47.655Z,99.90
2022-10-11T02:37:49.173Z,99.90
2022-10-11T02:42:50.715Z,99.90
2022-10-11T02:47:52.225Z,99.90
2022-10-11T02:52:53.741Z,99.90
2022-10-11T02:57:55.265Z,99.90
2022-10-11T03:02:56.765Z,99.90
2022-10-11T03:07:58.293Z,99.90
2022-10-11T03:13:02.089Z,99.90
2022-10-11T03:18:03.610Z,99.90
2022-10-11T03:23:05.130Z,99.90
2022-10-11T03:28:06.797Z,99.90
2022-10-11T03:33:08.370Z,99.90
2022-10-11T03:38:12.916Z,99.90
2022-10-11T03:43:14.577Z,99.90
2022-10-11T03:48:16.090Z,99.90
2022-10-11T03:53:17.628Z,99.90
2022-10-11T03:58:19.149Z,99.90
2022-10-11T04:03:20.648Z,99.90
2022-10-11T04:08:22.174Z,99.90
2022-10-11T04:13:23.708Z,99.90
2022-10-11T04:18:25.213Z,99.90
2022-10-11T04:23:26.726Z,99.90
2022-10-11T04:28:28.285Z,99.90
2022-10-11T04:33:29.855Z,99.90
2022-10-11T04:38:31.607Z,99.90
2022-10-11T04:43:33.114Z,99.90
2022-10-11T04:48:34.626Z,99.90
2022-10-11T04:53:36.127Z,99.90
2022-10-11T04:58:37.645Z,99.90
2022-10-11T05:03:39.179Z,99.90
2022-10-11T05:08:40.700Z,99.90
2022-10-11T05:13:42.235Z,99.90
2022-10-11T05:18:43.748Z,99.90
2022-10-11T05:23:45.269Z,99.90
2022-10-11T05:28:46.840Z,99.90
2022-10-11T05:33:48.439Z,99.90
2022-10-11T05:38:49.975Z,99.90
2022-10-11T05:43:51.515Z,99.90
2022-10-11T05:48:53.032Z,99.90
2022-10-11T05:53:54.562Z,99.90
2022-10-11T05:59:01.367Z,99.90
2022-10-11T06:04:03.822Z,99.90
2022-10-11T06:09:05.329Z,99.90
2022-10-11T06:14:06.847Z,99.90
2022-10-11T06:19:08.361Z,99.90
2022-10-11T06:24:09.886Z,99.90
2022-10-11T06:29:11.408Z,99.90
2022-10-11T06:34:12.929Z,99.90
2022-10-11T06:39:14.457Z,99.90
2022-10-11T06:44:15.994Z,99.90
2022-10-11T06:49:22.957Z,99.90
2022-10-11T06:54:24.919Z,99.90
2022-10-11T06:59:26.468Z,99.90
2022-10-11T07:04:28.006Z,99.90
2022-10-11T07:09:29.552Z,99.90
2022-10-11T07:14:31.082Z,99.90
2022-10-11T07:19:32.598Z,99.90
2022-10-11T07:24:34.158Z,99.90
2022-10-11T07:29:35.692Z,99.90
2022-10-11T07:34:37.215Z,99.90
2022-10-11T07:39:38.752Z,99.90
2022-10-11T07:44:40.281Z,99.90
2022-10-11T07:49:41.805Z,99.90
2022-10-11T07:54:43.483Z,99.90
2022-10-11T07:59:49.969Z,99.90
2022-10-11T08:04:51.780Z,99.90
2022-10-11T08:09:53.321Z,99.90
2022-10-11T08:14:54.849Z,99.90
2022-10-11T08:19:56.371Z,99.90
2022-10-11T08:24:57.906Z,99.90
2022-10-11T08:29:59.437Z,99.90
2022-10-11T08:35:00.957Z,99.90
2022-10-11T08:40:02.515Z,99.90
2022-10-11T08:45:11.105Z,99.90
2022-10-11T08:50:13.524Z,99.90
2022-10-11T08:55:15.055Z,99.90
2022-10-11T09:00:16.589Z,99.90
2022-10-11T09:05:18.102Z,99.90
2022-10-11T09:10:19.716Z,99.90
2022-10-11T09:15:21.303Z,99.90
2022-10-11T09:20:22.826Z,99.90
2022-10-11T09:25:24.373Z,99.90
2022-10-11T09:30:25.897Z,99.90
2022-10-11T09:35:27.422Z,99.90
2022-10-11T09:40:28.939Z,99.90
2022-10-11T09:45:30.468Z,99.90
2022-10-11T09:50:31.989Z,99.90
2022-10-11T09:55:33.523Z,99.90
2022-10-11T10:00:35.038Z,99.90
2022-10-11T10:05:36.580Z,99.90
2022-10-11T10:10:38.189Z,99.90
2022-10-11T10:15:39.691Z,99.90
2022-10-11T10:20:41.206Z,99.90
2022-10-11T10:25:43.761Z,99.00
2022-10-11T10:30:45.401Z,99.00
2022-10-11T10:35:46.937Z,98.00
2022-10-11T10:40:48.474Z,99.40
2022-10-11T10:45:49.993Z,98.60
2022-10-11T10:50:51.525Z,98.70
2022-10-11T10:55:53.068Z,98.90
2022-10-11T11:00:54.585Z,98.00
2022-10-11T11:05:56.156Z,99.90
2022-10-11T11:10:57.697Z,98.90
2022-10-11T11:15:59.204Z,97.80
2022-10-11T11:21:00.731Z,98.30
2022-10-11T11:26:02.563Z,97.50
2022-10-11T11:31:04.535Z,97.90
2022-10-11T11:36:06.662Z,98.10
2022-10-11T11:41:08.842Z,98.20
2022-10-11T11:46:10.541Z,97.70
2022-10-11T11:51:12.078Z,97.40
2022-10-11T11:56:13.642Z,96.70
2022-10-11T12:01:15.192Z,98.00
2022-10-11T12:06:16.715Z,96.30
2022-10-11T12:11:18.259Z,96.00
2022-10-11T12:16:19.787Z,96.20
2022-10-11T12:21:21.338Z,96.30
2022-10-11T12:26:22.863Z,95.10
2022-10-11T12:31:24.386Z,94.90
2022-10-11T12:36:25.904Z,94.10
2022-10-11T12:41:27.455Z,93.70
2022-10-11T12:46:29.011Z,94.50
2022-10-11T12:51:30.553Z,94.60
2022-10-11T12:56:32.390Z,94.50
2022-10-11T13:01:34.071Z,93.70
2022-10-11T13:06:35.663Z,94.30
2022-10-11T13:11:37.176Z,93.80
2022-10-11T13:16:38.702Z,93.50
2022-10-11T13:21:42.366Z,92.80
2022-10-11T13:26:43.869Z,92.60
2022-10-11T13:31:45.420Z,93.70
2022-10-11T13:36:46.953Z,92.80
2022-10-11T13:41:48.492Z,93.30
2022-10-11T13:46:50.021Z,92.80
2022-10-11T13:51:51.613Z,92.60
2022-10-11T13:56:53.134Z,92.90
2022-10-11T14:01:54.677Z,92.70
2022-10-11T14:06:56.271Z,93.70
2022-10-11T14:11:57.863Z,93.90
2022-10-11T14:16:59.381Z,94.00
2022-10-11T14:22:00.887Z,94.10
2022-10-11T14:27:02.442Z,94.50
2022-10-11T14:32:04.123Z,94.80
2022-10-11T14:37:05.690Z,94.70
2022-10-11T14:42:07.215Z,94.70
2022-10-11T14:47:08.739Z,93.70
2022-10-11T14:52:10.285Z,93.40
2022-10-11T14:57:11.832Z,93.00
2022-10-11T15:02:13.359Z,93.40
2022-10-11T15:07:14.883Z,93.80
2022-10-11T15:12:16.437Z,94.60
2022-10-11T15:17:17.946Z,94.80
2022-10-11T15:22:19.459Z,95.30
2022-10-11T15:27:20.999Z,95.70
2022-10-11T15:32:22.522Z,96.60
2022-10-11T15:37:24.050Z,97.50
2022-10-11T15:42:25.610Z,97.60
2022-10-11T15:47:27.134Z,98.40
2022-10-11T15:52:28.637Z,99.10
2022-10-11T15:57:30.144Z,99.60
2022-10-11T16:02:31.671Z,99.90
2022-10-11T16:07:33.185Z,99.90
2022-10-11T16:12:34.706Z,99.90
2022-10-11T16:17:36.228Z,99.90
2022-10-11T16:22:37.762Z,99.90
2022-10-11T16:27:39.323Z,99.90
2022-10-11T16:32:40.859Z,99.90
2022-10-11T16:37:42.373Z,99.90
2022-10-11T16:42:43.914Z,99.90
2022-10-11T16:47:45.418Z,99.90
2022-10-11T16:52:46.924Z,99.90
2022-10-11T16:57:48.436Z,99.90
2022-10-11T17:02:50.010Z,99.90
2022-10-11T17:07:51.536Z,99.90
2022-10-11T17:12:53.057Z,99.90
2022-10-11T17:17:54.583Z,99.90
2022-10-11T17:22:56.108Z,99.90
2022-10-11T17:27:57.644Z,99.90
2022-10-11T17:32:59.175Z,99.90
2022-10-11T17:38:05.107Z,99.90
2022-10-11T17:43:07.754Z,99.90
2022-10-11T17:48:09.273Z,99.90
2022-10-11T17:53:10.792Z,99.90
2022-10-11T17:58:12.320Z,99.90
2022-10-11T18:03:13.850Z,99.90
2022-10-11T18:08:15.373Z,99.90
2022-10-11T18:13:16.891Z,99.90
2022-10-11T18:18:18.420Z,99.90
2022-10-11T18:23:19.937Z,99.90
2022-10-11T18:28:21.496Z,99.90
2022-10-11T18:33:23.021Z,99.90
2022-10-11T18:38:24.541Z,99.90
2022-10-11T18:43:26.083Z,99.90
2022-10-11T18:48:27.615Z,99.90
2022-10-11T18:53:30.171Z,99.90
2022-10-11T18:58:31.665Z,99.90
2022-10-11T19:03:35.284Z,99.90
2022-10-11T19:08:37.111Z,99.90
2022-10-11T19:13:38.626Z,99.90
2022-10-11T19:18:44.091Z,99.90
2022-10-11T19:23:46.025Z,99.90
2022-10-11T19:28:47.568Z,99.90
2022-10-11T19:33:49.147Z,99.90
2022-10-11T19:38:50.663Z,99.90
2022-10-11T19:43:53.272Z,99.90
2022-10-11T19:48:54.921Z,99.90
2022-10-11T19:53:56.449Z,99.90
2022-10-11T19:58:57.982Z,99.90
2022-10-11T20:03:59.538Z,99.90
2022-10-11T20:09:27.281Z,99.90
2022-10-11T20:14:22.619Z,99.90
2022-10-11T20:19:29.485Z,99.90
2022-10-11T20:24:32.799Z,99.90
2022-10-11T20:29:34.956Z,99.90
2022-10-11T20:34:36.478Z,99.90
2022-10-11T20:39:37.996Z,99.90
2022-10-11T20:44:39.508Z,99.90
2022-10-11T20:49:41.047Z,99.90
2022-10-11T20:54:42.558Z,99.90
2022-10-11T20:59:44.084Z,99.90
2022-10-11T21:04:45.608Z,99.90
2022-10-11T21:09:47.112Z,99.90
2022-10-11T21:14:48.646Z,99.90
2022-10-11T21:19:50.195Z,99.90
2022-10-11T21:24:51.746Z,99.90
2022-10-11T21:29:53.264Z,99.90
2022-10-11T21:34:54.790Z,99.90
2022-10-11T21:39:56.308Z,99.90
2022-10-11T21:44:57.840Z,99.90
2022-10-11T21:49:59.387Z,99.90
2022-10-11T21:55:00.888Z,99.90
2022-10-11T22:00:02.419Z,99.90
2022-10-11T22:05:03.955Z,99.90
2022-10-11T22:10:05.546Z,99.90
2022-10-11T22:15:07.053Z,99.90
2022-10-11T22:20:08.563Z,99.90
2022-10-11T22:25:10.077Z,99.90
2022-10-11T22:30:11.572Z,99.90
2022-10-11T22:35:13.088Z,99.90
2022-10-11T22:40:14.602Z,99.90
2022-10-11T22:45:16.109Z,99.90
2022-10-11T22:50:17.612Z,99.90
2022-10-11T22:55:20.255Z,99.90
2022-10-11T23:00:21.950Z,99.90
2022-10-11T23:05:23.481Z,99.90
2022-10-11T23:10:25.015Z,99.90
2022-10-11T23:15:26.543Z,99.90
2022-10-11T23:20:28.055Z,99.90
2022-10-11T23:25:29.576Z,99.90
2022-10-11T23:30:31.071Z,99.90
2022-10-11T23:35:32.610Z,99.90
2022-10-11T23:40:34.131Z,99.90
2022-10-11T23:45:35.646Z,99.90
2022-10-11T23:50:37.173Z,99.90
2022-10-11T23:55:38.713Z,99.90
